sensor_id;sensor_type;location;lat;lon;timestamp;P1;durP1;ratioP1;P2;durP2;ratioP2
59518;SDS011;46994;54.976;73.404;2022-08-21T00:00:42;39.42;;;18.60;;
59518;SDS011;46994;54.976;73.404;2022-08-21T00:03:10;44.08;;;18.20;;
59518;SDS011;46994;54.976;73.404;2022-08-21T00:05:41;33.53;;;16.75;;
59518;SDS011;46994;54.976;73.404;2022-08-21T00:08:10;33.50;;;18.45;;
59518;SDS011;46994;54.976;73.404;2022-08-21T00:10:38;23.98;;;13.63;;
59518;SDS011;46994;54.976;73.404;2022-08-21T00:13:06;26.10;;;13.25;;
59518;SDS011;46994;54.976;73.404;2022-08-21T00:15:33;34.30;;;13.32;;
59518;SDS011;46994;54.976;73.404;2022-08-21T00:18:02;26.52;;;14.18;;
59518;SDS011;46994;54.976;73.404;2022-08-21T00:20:30;18.67;;;11.98;;
59518;SDS011;46994;54.976;73.404;2022-08-21T00:22:57;19.48;;;13.23;;
59518;SDS011;46994;54.976;73.404;2022-08-21T00:25:23;20.75;;;13.57;;
59518;SDS011;46994;54.976;73.404;2022-08-21T00:27:50;27.35;;;13.27;;
59518;SDS011;46994;54.976;73.404;2022-08-21T00:30:18;22.67;;;14.68;;
59518;SDS011;46994;54.976;73.404;2022-08-21T00:32:46;25.63;;;14.60;;
59518;SDS011;46994;54.976;73.404;2022-08-21T00:35:15;19.77;;;11.30;;
59518;SDS011;46994;54.976;73.404;2022-08-21T00:37:44;20.88;;;12.07;;
59518;SDS011;46994;54.976;73.404;2022-08-21T00:40:12;28.98;;;12.18;;
59518;SDS011;46994;54.976;73.404;2022-08-21T00:42:42;29.50;;;12.38;;
59518;SDS011;46994;54.976;73.404;2022-08-21T00:45:10;45.05;;;12.15;;
59518;SDS011;46994;54.976;73.404;2022-08-21T00:47:37;21.67;;;11.23;;
59518;SDS011;46994;54.976;73.404;2022-08-21T00:50:04;24.70;;;11.18;;
59518;SDS011;46994;54.976;73.404;2022-08-21T00:52:35;31.95;;;11.20;;
59518;SDS011;46994;54.976;73.404;2022-08-21T00:55:03;20.80;;;10.85;;
59518;SDS011;46994;54.976;73.404;2022-08-21T00:57:36;18.70;;;10.32;;
59518;SDS011;46994;54.976;73.404;2022-08-21T01:00:08;20.25;;;10.77;;
59518;SDS011;46994;54.976;73.404;2022-08-21T01:02:38;20.02;;;11.65;;
59518;SDS011;46994;54.976;73.404;2022-08-21T01:05:05;14.90;;;10.40;;
59518;SDS011;46994;54.976;73.404;2022-08-21T01:07:32;20.15;;;10.43;;
59518;SDS011;46994;54.976;73.404;2022-08-21T01:09:59;26.17;;;11.60;;
59518;SDS011;46994;54.976;73.404;2022-08-21T01:12:26;22.48;;;11.43;;
59518;SDS011;46994;54.976;73.404;2022-08-21T01:14:53;24.65;;;11.50;;
59518;SDS011;46994;54.976;73.404;2022-08-21T01:17:20;21.45;;;11.15;;
59518;SDS011;46994;54.976;73.404;2022-08-21T01:19:47;20.10;;;11.02;;
59518;SDS011;46994;54.976;73.404;2022-08-21T01:22:14;32.60;;;12.15;;
59518;SDS011;46994;54.976;73.404;2022-08-21T01:24:41;20.23;;;11.90;;
59518;SDS011;46994;54.976;73.404;2022-08-21T01:27:08;17.65;;;11.40;;
59518;SDS011;46994;54.976;73.404;2022-08-21T01:29:39;28.95;;;12.00;;
59518;SDS011;46994;54.976;73.404;2022-08-21T01:32:24;20.67;;;11.20;;
59518;SDS011;46994;54.976;73.404;2022-08-21T01:34:52;19.00;;;11.30;;
59518;SDS011;46994;54.976;73.404;2022-08-21T01:37:20;21.80;;;10.95;;
59518;SDS011;46994;54.976;73.404;2022-08-21T01:39:48;20.95;;;11.85;;
59518;SDS011;46994;54.976;73.404;2022-08-21T01:42:15;22.45;;;9.45;;
59518;SDS011;46994;54.976;73.404;2022-08-21T01:44:42;14.38;;;9.80;;
59518;SDS011;46994;54.976;73.404;2022-08-21T01:47:10;16.05;;;10.27;;
59518;SDS011;46994;54.976;73.404;2022-08-21T01:49:40;19.80;;;10.27;;
59518;SDS011;46994;54.976;73.404;2022-08-21T01:52:08;19.20;;;10.00;;
59518;SDS011;46994;54.976;73.404;2022-08-21T01:54:35;18.42;;;9.35;;
59518;SDS011;46994;54.976;73.404;2022-08-21T01:57:03;46.33;;;9.98;;
59518;SDS011;46994;54.976;73.404;2022-08-21T01:59:31;31.55;;;9.38;;
59518;SDS011;46994;54.976;73.404;2022-08-21T02:01:58;23.35;;;8.57;;
59518;SDS011;46994;54.976;73.404;2022-08-21T02:04:25;32.10;;;7.75;;
59518;SDS011;46994;54.976;73.404;2022-08-21T02:06:52;20.00;;;6.93;;
59518;SDS011;46994;54.976;73.404;2022-08-21T02:09:19;40.47;;;8.63;;
59518;SDS011;46994;54.976;73.404;2022-08-21T02:11:47;15.90;;;7.32;;
59518;SDS011;46994;54.976;73.404;2022-08-21T02:14:14;26.35;;;8.40;;
59518;SDS011;46994;54.976;73.404;2022-08-21T02:16:43;22.27;;;8.23;;
59518;SDS011;46994;54.976;73.404;2022-08-21T02:19:11;22.23;;;9.38;;
59518;SDS011;46994;54.976;73.404;2022-08-21T02:21:40;41.95;;;7.85;;
59518;SDS011;46994;54.976;73.404;2022-08-21T02:24:07;21.83;;;7.97;;
59518;SDS011;46994;54.976;73.404;2022-08-21T02:26:35;17.00;;;7.88;;
59518;SDS011;46994;54.976;73.404;2022-08-21T02:29:02;20.85;;;7.15;;
59518;SDS011;46994;54.976;73.404;2022-08-21T02:31:30;21.02;;;8.32;;
59518;SDS011;46994;54.976;73.404;2022-08-21T02:33:57;36.10;;;6.47;;
59518;SDS011;46994;54.976;73.404;2022-08-21T02:36:24;19.30;;;7.22;;
59518;SDS011;46994;54.976;73.404;2022-08-21T02:38:50;25.20;;;9.27;;
59518;SDS011;46994;54.976;73.404;2022-08-21T02:41:18;18.70;;;8.95;;
59518;SDS011;46994;54.976;73.404;2022-08-21T02:43:47;26.98;;;10.65;;
59518;SDS011;46994;54.976;73.404;2022-08-21T02:46:15;41.08;;;11.95;;
59518;SDS011;46994;54.976;73.404;2022-08-21T02:48:43;26.23;;;10.05;;
59518;SDS011;46994;54.976;73.404;2022-08-21T02:51:11;14.55;;;7.40;;
59518;SDS011;46994;54.976;73.404;2022-08-21T02:53:40;20.45;;;7.18;;
59518;SDS011;46994;54.976;73.404;2022-08-21T02:56:08;31.23;;;9.77;;
59518;SDS011;46994;54.976;73.404;2022-08-21T02:58:38;12.60;;;6.82;;
59518;SDS011;46994;54.976;73.404;2022-08-21T03:01:08;11.98;;;6.55;;
59518;SDS011;46994;54.976;73.404;2022-08-21T03:03:39;21.08;;;9.02;;
59518;SDS011;46994;54.976;73.404;2022-08-21T03:06:08;18.35;;;7.15;;
59518;SDS011;46994;54.976;73.404;2022-08-21T03:08:36;15.07;;;6.65;;
59518;SDS011;46994;54.976;73.404;2022-08-21T03:11:04;20.40;;;7.00;;
59518;SDS011;46994;54.976;73.404;2022-08-21T03:13:32;20.52;;;7.25;;
59518;SDS011;46994;54.976;73.404;2022-08-21T03:15:58;13.90;;;6.07;;
59518;SDS011;46994;54.976;73.404;2022-08-21T03:18:25;17.23;;;8.00;;
59518;SDS011;46994;54.976;73.404;2022-08-21T03:20:52;34.42;;;8.40;;
59518;SDS011;46994;54.976;73.404;2022-08-21T03:23:19;25.23;;;7.85;;
59518;SDS011;46994;54.976;73.404;2022-08-21T03:25:46;18.55;;;8.02;;
59518;SDS011;46994;54.976;73.404;2022-08-21T03:28:15;24.65;;;8.13;;
59518;SDS011;46994;54.976;73.404;2022-08-21T03:30:45;15.35;;;7.20;;
59518;SDS011;46994;54.976;73.404;2022-08-21T03:33:16;17.73;;;7.07;;
59518;SDS011;46994;54.976;73.404;2022-08-21T03:35:46;13.98;;;7.68;;
59518;SDS011;46994;54.976;73.404;2022-08-21T03:38:20;8.40;;;6.85;;
59518;SDS011;46994;54.976;73.404;2022-08-21T03:40:47;12.35;;;7.47;;
59518;SDS011;46994;54.976;73.404;2022-08-21T03:43:13;15.30;;;8.02;;
59518;SDS011;46994;54.976;73.404;2022-08-21T03:45:40;17.27;;;7.85;;
59518;SDS011;46994;54.976;73.404;2022-08-21T03:48:07;15.93;;;7.78;;
59518;SDS011;46994;54.976;73.404;2022-08-21T03:50:37;17.00;;;6.85;;
59518;SDS011;46994;54.976;73.404;2022-08-21T03:53:05;21.10;;;8.30;;
59518;SDS011;46994;54.976;73.404;2022-08-21T03:55:32;15.88;;;6.82;;
59518;SDS011;46994;54.976;73.404;2022-08-21T03:57:59;15.75;;;7.30;;
59518;SDS011;46994;54.976;73.404;2022-08-21T04:00:26;26.42;;;8.25;;
59518;SDS011;46994;54.976;73.404;2022-08-21T04:02:52;17.92;;;7.30;;
59518;SDS011;46994;54.976;73.404;2022-08-21T04:05:19;13.43;;;7.95;;
59518;SDS011;46994;54.976;73.404;2022-08-21T04:07:54;20.13;;;9.57;;
59518;SDS011;46994;54.976;73.404;2022-08-21T04:10:26;20.30;;;11.55;;
59518;SDS011;46994;54.976;73.404;2022-08-21T04:12:56;32.20;;;13.68;;
59518;SDS011;46994;54.976;73.404;2022-08-21T04:15:24;26.92;;;11.68;;
59518;SDS011;46994;54.976;73.404;2022-08-21T04:17:52;39.58;;;12.43;;
59518;SDS011;46994;54.976;73.404;2022-08-21T04:20:19;29.35;;;12.82;;
59518;SDS011;46994;54.976;73.404;2022-08-21T04:22:47;20.88;;;12.00;;
59518;SDS011;46994;54.976;73.404;2022-08-21T04:25:16;25.50;;;12.38;;
59518;SDS011;46994;54.976;73.404;2022-08-21T04:27:44;29.88;;;12.80;;
59518;SDS011;46994;54.976;73.404;2022-08-21T04:30:12;39.53;;;10.77;;
59518;SDS011;46994;54.976;73.404;2022-08-21T04:32:47;18.00;;;11.88;;
59518;SDS011;46994;54.976;73.404;2022-08-21T04:35:17;26.75;;;12.57;;
59518;SDS011;46994;54.976;73.404;2022-08-21T04:37:46;24.27;;;11.55;;
59518;SDS011;46994;54.976;73.404;2022-08-21T04:40:14;21.30;;;11.63;;
59518;SDS011;46994;54.976;73.404;2022-08-21T04:42:49;25.05;;;12.93;;
59518;SDS011;46994;54.976;73.404;2022-08-21T04:47:53;21.67;;;13.07;;
59518;SDS011;46994;54.976;73.404;2022-08-21T04:50:25;22.75;;;12.38;;
59518;SDS011;46994;54.976;73.404;2022-08-21T04:53:06;28.80;;;13.55;;
59518;SDS011;46994;54.976;73.404;2022-08-21T04:55:36;26.08;;;15.13;;
59518;SDS011;46994;54.976;73.404;2022-08-21T04:58:04;25.73;;;12.18;;
59518;SDS011;46994;54.976;73.404;2022-08-21T05:00:34;29.35;;;11.25;;
59518;SDS011;46994;54.976;73.404;2022-08-21T05:03:01;18.30;;;12.02;;
59518;SDS011;46994;54.976;73.404;2022-08-21T05:05:30;25.80;;;14.38;;
59518;SDS011;46994;54.976;73.404;2022-08-21T05:07:57;21.95;;;11.77;;
59518;SDS011;46994;54.976;73.404;2022-08-21T05:10:27;22.83;;;11.95;;
59518;SDS011;46994;54.976;73.404;2022-08-21T05:12:55;24.33;;;13.18;;
59518;SDS011;46994;54.976;73.404;2022-08-21T05:15:22;23.33;;;13.48;;
59518;SDS011;46994;54.976;73.404;2022-08-21T05:17:49;20.92;;;14.52;;
59518;SDS011;46994;54.976;73.404;2022-08-21T05:20:16;32.42;;;18.40;;
59518;SDS011;46994;54.976;73.404;2022-08-21T05:22:43;33.88;;;17.90;;
59518;SDS011;46994;54.976;73.404;2022-08-21T05:25:10;31.77;;;19.02;;
59518;SDS011;46994;54.976;73.404;2022-08-21T05:27:37;33.80;;;17.27;;
59518;SDS011;46994;54.976;73.404;2022-08-21T05:30:06;32.15;;;18.17;;
59518;SDS011;46994;54.976;73.404;2022-08-21T05:32:34;34.33;;;18.95;;
59518;SDS011;46994;54.976;73.404;2022-08-21T05:35:03;31.00;;;17.55;;
59518;SDS011;46994;54.976;73.404;2022-08-21T05:37:31;21.98;;;14.88;;
59518;SDS011;46994;54.976;73.404;2022-08-21T05:39:58;22.23;;;14.75;;
59518;SDS011;46994;54.976;73.404;2022-08-21T05:42:26;19.00;;;13.63;;
59518;SDS011;46994;54.976;73.404;2022-08-21T05:44:53;21.50;;;13.10;;
59518;SDS011;46994;54.976;73.404;2022-08-21T05:47:20;20.73;;;12.20;;
59518;SDS011;46994;54.976;73.404;2022-08-21T05:49:47;25.40;;;13.75;;
59518;SDS011;46994;54.976;73.404;2022-08-21T05:52:18;22.08;;;10.63;;
59518;SDS011;46994;54.976;73.404;2022-08-21T05:54:47;15.60;;;9.43;;
59518;SDS011;46994;54.976;73.404;2022-08-21T05:57:15;14.32;;;9.68;;
59518;SDS011;46994;54.976;73.404;2022-08-21T05:59:42;13.23;;;8.93;;
59518;SDS011;46994;54.976;73.404;2022-08-21T06:02:09;16.95;;;9.77;;
59518;SDS011;46994;54.976;73.404;2022-08-21T06:04:36;17.85;;;10.18;;
59518;SDS011;46994;54.976;73.404;2022-08-21T06:07:03;13.60;;;9.57;;
59518;SDS011;46994;54.976;73.404;2022-08-21T06:09:30;12.52;;;9.27;;
59518;SDS011;46994;54.976;73.404;2022-08-21T06:11:57;11.82;;;8.35;;
59518;SDS011;46994;54.976;73.404;2022-08-21T06:14:24;9.20;;;7.82;;
59518;SDS011;46994;54.976;73.404;2022-08-21T06:16:51;8.70;;;5.55;;
59518;SDS011;46994;54.976;73.404;2022-08-21T06:19:17;6.07;;;4.88;;
59518;SDS011;46994;54.976;73.404;2022-08-21T06:21:44;3.55;;;3.22;;
59518;SDS011;46994;54.976;73.404;2022-08-21T06:24:11;5.75;;;4.18;;
59518;SDS011;46994;54.976;73.404;2022-08-21T06:26:38;5.88;;;2.92;;
59518;SDS011;46994;54.976;73.404;2022-08-21T06:29:05;2.85;;;2.55;;
59518;SDS011;46994;54.976;73.404;2022-08-21T06:31:31;3.35;;;2.65;;
59518;SDS011;46994;54.976;73.404;2022-08-21T06:33:58;5.63;;;2.65;;
59518;SDS011;46994;54.976;73.404;2022-08-21T06:36:25;7.65;;;4.95;;
59518;SDS011;46994;54.976;73.404;2022-08-21T06:38:52;5.25;;;2.60;;
59518;SDS011;46994;54.976;73.404;2022-08-21T06:41:19;4.60;;;2.42;;
59518;SDS011;46994;54.976;73.404;2022-08-21T06:43:46;2.55;;;2.20;;
59518;SDS011;46994;54.976;73.404;2022-08-21T06:46:13;4.60;;;2.20;;
59518;SDS011;46994;54.976;73.404;2022-08-21T06:48:40;6.18;;;1.80;;
59518;SDS011;46994;54.976;73.404;2022-08-21T06:51:07;2.72;;;2.13;;
59518;SDS011;46994;54.976;73.404;2022-08-21T06:53:33;2.22;;;2.00;;
59518;SDS011;46994;54.976;73.404;2022-08-21T06:56:00;2.10;;;1.90;;
59518;SDS011;46994;54.976;73.404;2022-08-21T06:58:27;3.08;;;2.53;;
59518;SDS011;46994;54.976;73.404;2022-08-21T07:00:55;2.80;;;2.38;;
59518;SDS011;46994;54.976;73.404;2022-08-21T07:05:50;5.05;;;2.70;;
59518;SDS011;46994;54.976;73.404;2022-08-21T07:08:17;4.88;;;2.10;;
59518;SDS011;46994;54.976;73.404;2022-08-21T07:10:44;3.75;;;2.50;;
59518;SDS011;46994;54.976;73.404;2022-08-21T07:13:11;2.53;;;1.90;;
59518;SDS011;46994;54.976;73.404;2022-08-21T07:15:39;3.75;;;1.48;;
59518;SDS011;46994;54.976;73.404;2022-08-21T07:18:06;2.22;;;1.92;;
59518;SDS011;46994;54.976;73.404;2022-08-21T07:20:33;3.00;;;2.25;;
59518;SDS011;46994;54.976;73.404;2022-08-21T07:23:01;2.75;;;2.03;;
59518;SDS011;46994;54.976;73.404;2022-08-21T07:25:32;1.67;;;1.40;;
59518;SDS011;46994;54.976;73.404;2022-08-21T07:27:58;6.47;;;1.45;;
59518;SDS011;46994;54.976;73.404;2022-08-21T07:30:25;2.60;;;1.30;;
59518;SDS011;46994;54.976;73.404;2022-08-21T07:32:52;2.30;;;1.67;;
59518;SDS011;46994;54.976;73.404;2022-08-21T07:35:20;2.00;;;0.95;;
59518;SDS011;46994;54.976;73.404;2022-08-21T07:37:47;6.93;;;1.70;;
59518;SDS011;46994;54.976;73.404;2022-08-21T07:40:14;1.50;;;0.77;;
59518;SDS011;46994;54.976;73.404;2022-08-21T07:42:43;5.95;;;1.50;;
59518;SDS011;46994;54.976;73.404;2022-08-21T07:45:12;2.92;;;1.65;;
59518;SDS011;46994;54.976;73.404;2022-08-21T07:47:40;4.25;;;1.50;;
59518;SDS011;46994;54.976;73.404;2022-08-21T07:50:07;2.92;;;1.40;;
59518;SDS011;46994;54.976;73.404;2022-08-21T07:52:34;2.63;;;1.30;;
59518;SDS011;46994;54.976;73.404;2022-08-21T07:55:00;1.48;;;1.30;;
59518;SDS011;46994;54.976;73.404;2022-08-21T07:57:27;5.50;;;2.50;;
59518;SDS011;46994;54.976;73.404;2022-08-21T07:59:55;2.30;;;1.00;;
59518;SDS011;46994;54.976;73.404;2022-08-21T08:02:22;3.55;;;1.00;;
59518;SDS011;46994;54.976;73.404;2022-08-21T08:04:53;4.80;;;1.30;;
59518;SDS011;46994;54.976;73.404;2022-08-21T08:07:20;3.40;;;1.23;;
59518;SDS011;46994;54.976;73.404;2022-08-21T08:09:47;1.80;;;1.23;;
59518;SDS011;46994;54.976;73.404;2022-08-21T08:12:14;1.95;;;1.10;;
59518;SDS011;46994;54.976;73.404;2022-08-21T08:14:41;2.90;;;1.52;;
59518;SDS011;46994;54.976;73.404;2022-08-21T08:17:08;1.17;;;0.98;;
59518;SDS011;46994;54.976;73.404;2022-08-21T08:19:34;4.00;;;1.45;;
59518;SDS011;46994;54.976;73.404;2022-08-21T08:22:01;3.10;;;1.10;;
59518;SDS011;46994;54.976;73.404;2022-08-21T08:24:39;1.55;;;1.00;;
59518;SDS011;46994;54.976;73.404;2022-08-21T08:27:06;3.67;;;1.35;;
59518;SDS011;46994;54.976;73.404;2022-08-21T08:29:32;4.70;;;1.48;;
59518;SDS011;46994;54.976;73.404;2022-08-21T08:31:59;3.10;;;1.15;;
59518;SDS011;46994;54.976;73.404;2022-08-21T08:34:26;1.85;;;1.05;;
59518;SDS011;46994;54.976;73.404;2022-08-21T08:36:53;5.13;;;1.10;;
59518;SDS011;46994;54.976;73.404;2022-08-21T08:39:20;3.05;;;1.27;;
59518;SDS011;46994;54.976;73.404;2022-08-21T08:41:46;5.70;;;1.25;;
59518;SDS011;46994;54.976;73.404;2022-08-21T08:44:17;2.80;;;1.33;;
59518;SDS011;46994;54.976;73.404;2022-08-21T08:46:46;4.38;;;1.25;;
59518;SDS011;46994;54.976;73.404;2022-08-21T08:49:20;2.45;;;1.80;;
59518;SDS011;46994;54.976;73.404;2022-08-21T08:52:05;5.20;;;1.88;;
59518;SDS011;46994;54.976;73.404;2022-08-21T08:54:50;14.10;;;1.67;;
59518;SDS011;46994;54.976;73.404;2022-08-21T08:57:22;3.67;;;1.85;;
59518;SDS011;46994;54.976;73.404;2022-08-21T08:59:52;3.55;;;1.45;;
59518;SDS011;46994;54.976;73.404;2022-08-21T09:02:24;6.68;;;1.42;;
59518;SDS011;46994;54.976;73.404;2022-08-21T09:04:51;5.38;;;1.40;;
59518;SDS011;46994;54.976;73.404;2022-08-21T09:10:21;1.95;;;1.23;;
59518;SDS011;46994;54.976;73.404;2022-08-21T09:13:17;2.30;;;1.42;;
59518;SDS011;46994;54.976;73.404;2022-08-21T09:21:52;5.28;;;1.50;;
59518;SDS011;46994;54.976;73.404;2022-08-21T09:29:35;4.95;;;1.63;;
59518;SDS011;46994;54.976;73.404;2022-08-21T09:32:08;6.28;;;1.90;;
59518;SDS011;46994;54.976;73.404;2022-08-21T09:34:57;9.07;;;2.17;;
59518;SDS011;46994;54.976;73.404;2022-08-21T09:37:25;5.07;;;2.00;;
59518;SDS011;46994;54.976;73.404;2022-08-21T09:39:55;4.50;;;1.95;;
59518;SDS011;46994;54.976;73.404;2022-08-21T09:42:27;7.10;;;2.03;;
59518;SDS011;46994;54.976;73.404;2022-08-21T09:45:06;8.65;;;2.40;;
59518;SDS011;46994;54.976;73.404;2022-08-21T09:47:37;5.63;;;2.53;;
59518;SDS011;46994;54.976;73.404;2022-08-21T09:50:08;16.00;;;2.97;;
59518;SDS011;46994;54.976;73.404;2022-08-21T09:55:18;8.40;;;2.58;;
59518;SDS011;46994;54.976;73.404;2022-08-21T09:58:30;2.97;;;1.98;;
59518;SDS011;46994;54.976;73.404;2022-08-21T10:01:00;10.90;;;3.30;;
59518;SDS011;46994;54.976;73.404;2022-08-21T10:03:29;6.53;;;2.80;;
59518;SDS011;46994;54.976;73.404;2022-08-21T10:08:24;5.55;;;2.80;;
59518;SDS011;46994;54.976;73.404;2022-08-21T10:10:56;8.02;;;2.70;;
59518;SDS011;46994;54.976;73.404;2022-08-21T10:13:31;4.78;;;2.17;;
59518;SDS011;46994;54.976;73.404;2022-08-21T10:22:09;9.38;;;2.35;;
59518;SDS011;46994;54.976;73.404;2022-08-21T10:27:27;6.75;;;2.47;;
59518;SDS011;46994;54.976;73.404;2022-08-21T10:32:53;4.13;;;1.80;;
59518;SDS011;46994;54.976;73.404;2022-08-21T10:35:52;4.65;;;2.17;;
59518;SDS011;46994;54.976;73.404;2022-08-21T10:38:54;7.32;;;2.58;;
59518;SDS011;46994;54.976;73.404;2022-08-21T10:44:39;11.15;;;2.97;;
59518;SDS011;46994;54.976;73.404;2022-08-21T10:50:04;9.02;;;2.50;;
59518;SDS011;46994;54.976;73.404;2022-08-21T10:55:56;6.60;;;2.75;;
59518;SDS011;46994;54.976;73.404;2022-08-21T10:58:45;9.65;;;2.85;;
59518;SDS011;46994;54.976;73.404;2022-08-21T11:01:31;9.77;;;2.33;;
59518;SDS011;46994;54.976;73.404;2022-08-21T11:04:06;9.88;;;2.60;;
59518;SDS011;46994;54.976;73.404;2022-08-21T11:06:53;13.40;;;3.55;;
59518;SDS011;46994;54.976;73.404;2022-08-21T11:09:27;11.50;;;2.78;;
59518;SDS011;46994;54.976;73.404;2022-08-21T11:18:49;8.25;;;3.92;;
59518;SDS011;46994;54.976;73.404;2022-08-21T11:29:29;4.47;;;2.65;;
59518;SDS011;46994;54.976;73.404;2022-08-21T11:37:44;24.25;;;3.38;;
59518;SDS011;46994;54.976;73.404;2022-08-21T11:40:39;17.58;;;4.18;;
59518;SDS011;46994;54.976;73.404;2022-08-21T11:49:05;6.95;;;2.83;;
59518;SDS011;46994;54.976;73.404;2022-08-21T11:51:54;6.75;;;2.85;;
59518;SDS011;46994;54.976;73.404;2022-08-21T11:54:34;6.57;;;3.03;;
59518;SDS011;46994;54.976;73.404;2022-08-21T11:57:50;25.97;;;3.70;;
59518;SDS011;46994;54.976;73.404;2022-08-21T12:00:30;12.80;;;3.22;;
59518;SDS011;46994;54.976;73.404;2022-08-21T12:03:09;19.35;;;3.75;;
59518;SDS011;46994;54.976;73.404;2022-08-21T12:05:40;10.30;;;2.90;;
59518;SDS011;46994;54.976;73.404;2022-08-21T12:10:38;16.73;;;3.50;;
59518;SDS011;46994;54.976;73.404;2022-08-21T12:13:29;15.65;;;3.55;;
59518;SDS011;46994;54.976;73.404;2022-08-21T12:16:06;9.52;;;3.33;;
59518;SDS011;46994;54.976;73.404;2022-08-21T12:18:42;9.18;;;3.22;;
59518;SDS011;46994;54.976;73.404;2022-08-21T12:21:30;12.15;;;3.88;;
59518;SDS011;46994;54.976;73.404;2022-08-21T12:29:25;14.10;;;3.90;;
59518;SDS011;46994;54.976;73.404;2022-08-21T12:34:50;25.23;;;4.32;;
59518;SDS011;46994;54.976;73.404;2022-08-21T12:40:04;12.93;;;3.05;;
59518;SDS011;46994;54.976;73.404;2022-08-21T12:42:38;7.25;;;2.80;;
59518;SDS011;46994;54.976;73.404;2022-08-21T12:45:52;9.07;;;2.92;;
59518;SDS011;46994;54.976;73.404;2022-08-21T12:48:08;10.82;;;3.60;;
59518;SDS011;46994;54.976;73.404;2022-08-21T12:50:42;13.80;;;4.43;;
59518;SDS011;46994;54.976;73.404;2022-08-21T12:53:23;8.23;;;2.75;;
59518;SDS011;46994;54.976;73.404;2022-08-21T12:56:04;8.68;;;3.50;;
59518;SDS011;46994;54.976;73.404;2022-08-21T12:58:36;11.50;;;3.20;;
59518;SDS011;46994;54.976;73.404;2022-08-21T13:01:11;12.85;;;3.25;;
59518;SDS011;46994;54.976;73.404;2022-08-21T13:03:45;14.90;;;3.67;;
59518;SDS011;46994;54.976;73.404;2022-08-21T13:06:13;11.93;;;3.90;;
59518;SDS011;46994;54.976;73.404;2022-08-21T13:08:43;18.05;;;3.75;;
59518;SDS011;46994;54.976;73.404;2022-08-21T13:11:13;11.13;;;4.28;;
59518;SDS011;46994;54.976;73.404;2022-08-21T13:13:47;18.05;;;3.58;;
59518;SDS011;46994;54.976;73.404;2022-08-21T13:16:22;17.33;;;3.58;;
59518;SDS011;46994;54.976;73.404;2022-08-21T13:19:03;8.88;;;3.13;;
59518;SDS011;46994;54.976;73.404;2022-08-21T13:21:33;6.57;;;3.53;;
59518;SDS011;46994;54.976;73.404;2022-08-21T13:26:43;16.83;;;3.75;;
59518;SDS011;46994;54.976;73.404;2022-08-21T13:29:11;15.10;;;3.30;;
59518;SDS011;46994;54.976;73.404;2022-08-21T13:31:45;13.15;;;3.20;;
59518;SDS011;46994;54.976;73.404;2022-08-21T13:36:44;16.63;;;4.55;;
59518;SDS011;46994;54.976;73.404;2022-08-21T13:39:12;16.40;;;3.83;;
59518;SDS011;46994;54.976;73.404;2022-08-21T13:41:46;10.20;;;4.28;;
59518;SDS011;46994;54.976;73.404;2022-08-21T13:44:17;10.65;;;3.80;;
59518;SDS011;46994;54.976;73.404;2022-08-21T13:46:52;15.70;;;4.05;;
59518;SDS011;46994;54.976;73.404;2022-08-21T13:49:21;13.93;;;3.97;;
59518;SDS011;46994;54.976;73.404;2022-08-21T13:51:55;16.73;;;4.25;;
59518;SDS011;46994;54.976;73.404;2022-08-21T13:54:23;17.92;;;5.03;;
59518;SDS011;46994;54.976;73.404;2022-08-21T13:56:52;19.45;;;4.43;;
59518;SDS011;46994;54.976;73.404;2022-08-21T13:59:24;16.30;;;4.22;;
59518;SDS011;46994;54.976;73.404;2022-08-21T14:04:39;19.65;;;4.13;;
59518;SDS011;46994;54.976;73.404;2022-08-21T14:07:17;20.00;;;4.22;;
59518;SDS011;46994;54.976;73.404;2022-08-21T14:09:47;12.52;;;3.00;;
59518;SDS011;46994;54.976;73.404;2022-08-21T14:12:17;9.60;;;2.78;;
59518;SDS011;46994;54.976;73.404;2022-08-21T14:14:50;18.33;;;4.82;;
59518;SDS011;46994;54.976;73.404;2022-08-21T14:17:27;14.02;;;4.70;;
59518;SDS011;46994;54.976;73.404;2022-08-21T14:19:57;24.98;;;4.90;;
59518;SDS011;46994;54.976;73.404;2022-08-21T14:25:11;10.30;;;4.30;;
59518;SDS011;46994;54.976;73.404;2022-08-21T14:30:34;11.27;;;3.40;;
59518;SDS011;46994;54.976;73.404;2022-08-21T14:33:03;13.93;;;3.78;;
59518;SDS011;46994;54.976;73.404;2022-08-21T14:35:35;8.50;;;3.15;;
59518;SDS011;46994;54.976;73.404;2022-08-21T14:38:05;11.27;;;3.42;;
59518;SDS011;46994;54.976;73.404;2022-08-21T14:40:40;7.38;;;3.20;;
59518;SDS011;46994;54.976;73.404;2022-08-21T14:43:08;13.63;;;4.38;;
59518;SDS011;46994;54.976;73.404;2022-08-21T14:45:36;13.70;;;3.35;;
59518;SDS011;46994;54.976;73.404;2022-08-21T14:48:04;15.23;;;2.53;;
59518;SDS011;46994;54.976;73.404;2022-08-21T14:50:31;14.00;;;4.00;;
59518;SDS011;46994;54.976;73.404;2022-08-21T14:52:58;14.05;;;3.00;;
59518;SDS011;46994;54.976;73.404;2022-08-21T14:55:25;15.45;;;3.90;;
59518;SDS011;46994;54.976;73.404;2022-08-21T14:57:52;14.75;;;3.30;;
59518;SDS011;46994;54.976;73.404;2022-08-21T15:00:22;11.23;;;3.42;;
59518;SDS011;46994;54.976;73.404;2022-08-21T15:02:50;15.30;;;3.80;;
59518;SDS011;46994;54.976;73.404;2022-08-21T15:05:18;22.17;;;4.30;;
59518;SDS011;46994;54.976;73.404;2022-08-21T15:07:45;15.18;;;4.63;;
59518;SDS011;46994;54.976;73.404;2022-08-21T15:10:12;17.92;;;5.25;;
59518;SDS011;46994;54.976;73.404;2022-08-21T15:12:39;17.88;;;5.57;;
59518;SDS011;46994;54.976;73.404;2022-08-21T15:15:06;35.72;;;6.22;;
59518;SDS011;46994;54.976;73.404;2022-08-21T15:17:34;28.55;;;7.85;;
59518;SDS011;46994;54.976;73.404;2022-08-21T15:20:02;13.45;;;6.97;;
59518;SDS011;46994;54.976;73.404;2022-08-21T15:22:31;23.23;;;6.78;;
59518;SDS011;46994;54.976;73.404;2022-08-21T15:24:59;27.23;;;7.22;;
59518;SDS011;46994;54.976;73.404;2022-08-21T15:27:27;18.73;;;8.02;;
59518;SDS011;46994;54.976;73.404;2022-08-21T15:29:55;20.70;;;8.20;;
59518;SDS011;46994;54.976;73.404;2022-08-21T15:32:23;21.10;;;6.95;;
59518;SDS011;46994;54.976;73.404;2022-08-21T15:34:54;18.00;;;7.30;;
59518;SDS011;46994;54.976;73.404;2022-08-21T15:37:22;22.52;;;6.22;;
59518;SDS011;46994;54.976;73.404;2022-08-21T15:39:50;27.55;;;6.47;;
59518;SDS011;46994;54.976;73.404;2022-08-21T15:42:18;31.80;;;6.35;;
59518;SDS011;46994;54.976;73.404;2022-08-21T15:44:46;23.35;;;7.35;;
59518;SDS011;46994;54.976;73.404;2022-08-21T15:47:15;21.27;;;6.95;;
59518;SDS011;46994;54.976;73.404;2022-08-21T15:49:44;18.35;;;5.68;;
59518;SDS011;46994;54.976;73.404;2022-08-21T15:52:15;19.88;;;6.00;;
59518;SDS011;46994;54.976;73.404;2022-08-21T15:54:43;17.38;;;5.53;;
59518;SDS011;46994;54.976;73.404;2022-08-21T15:57:14;22.15;;;6.80;;
59518;SDS011;46994;54.976;73.404;2022-08-21T15:59:44;23.38;;;5.72;;
59518;SDS011;46994;54.976;73.404;2022-08-21T16:02:17;22.80;;;5.07;;
59518;SDS011;46994;54.976;73.404;2022-08-21T16:04:47;16.63;;;5.25;;
59518;SDS011;46994;54.976;73.404;2022-08-21T16:07:14;23.85;;;5.07;;
59518;SDS011;46994;54.976;73.404;2022-08-21T16:09:42;11.25;;;5.20;;
59518;SDS011;46994;54.976;73.404;2022-08-21T16:12:09;19.33;;;5.28;;
59518;SDS011;46994;54.976;73.404;2022-08-21T16:14:42;18.10;;;5.03;;
59518;SDS011;46994;54.976;73.404;2022-08-21T16:17:09;18.45;;;5.35;;
59518;SDS011;46994;54.976;73.404;2022-08-21T16:19:36;22.13;;;5.32;;